createdAt,value
2023-05-19T00:00:28.621Z,102921.38
2023-05-19T00:02:57.442Z,102912.28
2023-05-19T00:05:28.125Z,102911.72
2023-05-19T00:07:59.770Z,102907.88
2023-05-19T00:10:31.634Z,102912.53
2023-05-19T00:13:01.439Z,102912.63
2023-05-19T00:15:28.152Z,102916.13
2023-05-19T00:17:57.255Z,102911.31
2023-05-19T00:20:25.880Z,102904.91
2023-05-19T00:22:52.513Z,102898.28
2023-05-19T00:25:19.017Z,102895.00
2023-05-19T00:27:47.898Z,102901.41
2023-05-19T00:30:14.729Z,102893.16
2023-05-19T00:32:41.263Z,102894.09
2023-05-19T00:35:08.240Z,102890.81
2023-05-19T00:37:37.254Z,102885.47
2023-05-19T00:40:06.895Z,102888.13
2023-05-19T00:42:40.747Z,102891.75
2023-05-19T00:45:07.919Z,102887.44
2023-05-19T00:47:34.756Z,102885.13
2023-05-19T00:50:03.917Z,102886.28
2023-05-19T00:52:30.816Z,102889.97
2023-05-19T00:55:02.354Z,102886.81
2023-05-19T00:57:31.255Z,102882.88
2023-05-19T01:00:04.075Z,102883.06
2023-05-19T01:02:33.238Z,102881.66
2023-05-19T01:05:02.892Z,102883.66
2023-05-19T01:07:30.032Z,102884.56
2023-05-19T01:09:56.574Z,102886.66
2023-05-19T01:12:25.991Z,102891.78
2023-05-19T01:14:52.611Z,102895.22
2023-05-19T01:17:36.834Z,102896.97
2023-05-19T01:20:06.662Z,102895.34
2023-05-19T01:22:42.688Z,102894.53
2023-05-19T01:25:13.006Z,102899.06
2023-05-19T01:28:03.685Z,102894.19
2023-05-19T01:30:33.922Z,102882.31
2023-05-19T01:33:04.434Z,102884.97
2023-05-19T01:35:34.184Z,102875.66
2023-05-19T01:38:01.773Z,102881.72
2023-05-19T01:40:30.173Z,102870.88
2023-05-19T01:42:59.338Z,102870.19
2023-05-19T01:45:28.452Z,102867.63
2023-05-19T01:48:00.395Z,102862.72
2023-05-19T01:50:33.216Z,102868.06
2023-05-19T01:53:01.317Z,102870.00
2023-05-19T01:55:30.788Z,102868.50
2023-05-19T01:58:12.516Z,102871.16
2023-05-19T02:01:22.622Z,102868.91
2023-05-19T02:03:58.162Z,102869.84
2023-05-19T02:06:39.240Z,102873.56
2023-05-19T02:09:29.018Z,102866.91
2023-05-19T02:12:02.920Z,102868.97
2023-05-19T02:14:41.912Z,102871.66
2023-05-19T02:17:09.438Z,102867.47
2023-05-19T02:19:39.375Z,102869.28
2023-05-19T02:22:08.534Z,102861.88
2023-05-19T02:24:35.103Z,102862.06
2023-05-19T02:27:01.626Z,102854.63
2023-05-19T02:29:30.494Z,102857.28
2023-05-19T02:31:57.015Z,102854.84
2023-05-19T02:34:28.468Z,102853.31
2023-05-19T02:36:57.740Z,102849.84
2023-05-19T02:39:26.712Z,102851.78
2023-05-19T02:41:58.224Z,102850.03
2023-05-19T02:44:24.793Z,102845.84
2023-05-19T02:46:53.854Z,102839.94
2023-05-19T02:49:20.610Z,102842.50
2023-05-19T02:51:49.478Z,102837.56
2023-05-19T02:54:20.744Z,102835.94
2023-05-19T02:56:49.522Z,102836.06
2023-05-19T02:59:18.386Z,102833.63
2023-05-19T03:01:47.668Z,102826.16
2023-05-19T03:04:20.125Z,102828.59
2023-05-19T03:06:49.108Z,102830.47
2023-05-19T03:09:15.704Z,102826.16
2023-05-19T03:11:44.807Z,102823.91
2023-05-19T03:14:12.457Z,102829.25
2023-05-19T03:16:41.219Z,102829.47
2023-05-19T03:19:09.153Z,102830.69
2023-05-19T03:21:35.756Z,102829.06
2023-05-19T03:24:02.392Z,102834.28
2023-05-19T03:26:32.512Z,102832.97
2023-05-19T03:29:03.935Z,102822.84
2023-05-19T03:31:30.621Z,102831.44
2023-05-19T03:34:02.492Z,102822.97
2023-05-19T03:36:41.192Z,102830.63
2023-05-19T03:39:12.626Z,102823.78
2023-05-19T03:41:39.132Z,102822.16
2023-05-19T03:44:11.184Z,102825.41
2023-05-19T03:46:37.739Z,102822.84
2023-05-19T03:49:04.250Z,102821.94
2023-05-19T03:51:36.685Z,102820.78
2023-05-19T03:54:08.316Z,102823.34
2023-05-19T03:56:39.708Z,102829.19
2023-05-19T03:59:07.111Z,102829.06
2023-05-19T04:01:36.569Z,102827.66
2023-05-19T04:04:03.367Z,102826.94
2023-05-19T04:06:33.908Z,102824.78
2023-05-19T04:09:05.075Z,102834.81
2023-05-19T04:11:37.288Z,102827.53
2023-05-19T04:14:06.267Z,102828.84
2023-05-19T04:16:37.882Z,102831.28
2023-05-19T04:19:06.748Z,102828.41
2023-05-19T04:21:33.694Z,102826.53
2023-05-19T04:24:00.266Z,102830.31
2023-05-19T04:26:30.841Z,102830.38
2023-05-19T04:28:59.924Z,102835.25
2023-05-19T04:31:27.483Z,102836.69
2023-05-19T04:33:56.620Z,102829.50
2023-05-19T04:36:25.755Z,102835.09
2023-05-19T04:38:54.995Z,102829.09
2023-05-19T04:41:23.862Z,102830.88
2023-05-19T04:43:53.061Z,102832.31
2023-05-19T04:46:25.981Z,102837.41
2023-05-19T04:48:55.329Z,102840.47
2023-05-19T04:51:30.315Z,102835.91
2023-05-19T04:53:57.709Z,102833.75
2023-05-19T04:56:24.274Z,102839.22
2023-05-19T04:58:53.779Z,102843.44
2023-05-19T05:01:22.679Z,102846.16
2023-05-19T05:03:49.329Z,102847.91
2023-05-19T05:06:16.310Z,102848.44
2023-05-19T05:08:42.862Z,102838.72
2023-05-19T05:11:12.152Z,102841.06
2023-05-19T05:13:41.951Z,102837.31
2023-05-19T05:16:10.288Z,102839.16
2023-05-19T05:18:38.738Z,102847.47
2023-05-19T05:21:07.044Z,102850.56
2023-05-19T05:23:34.053Z,102844.03
2023-05-19T05:26:09.352Z,102842.25
2023-05-19T05:28:35.944Z,102847.78
2023-05-19T05:31:05.172Z,102840.66
2023-05-19T05:33:34.288Z,102844.56
2023-05-19T05:36:05.913Z,102841.81
2023-05-19T05:38:32.528Z,102832.22
2023-05-19T05:41:02.649Z,102838.41
2023-05-19T05:43:30.020Z,102833.53
2023-05-19T05:45:57.307Z,102840.00
2023-05-19T05:48:26.755Z,102844.25
2023-05-19T05:50:55.553Z,102836.03
2023-05-19T05:53:24.637Z,102843.25
2023-05-19T05:55:53.806Z,102842.53
2023-05-19T05:58:23.051Z,102837.69
2023-05-19T06:00:51.518Z,102842.97
2023-05-19T06:03:22.040Z,102840.56
2023-05-19T06:05:48.760Z,102849.47
2023-05-19T06:08:20.173Z,102849.88
2023-05-19T06:10:47.497Z,102845.81
2023-05-19T06:13:22.253Z,102853.31
2023-05-19T06:15:48.795Z,102839.28
2023-05-19T06:18:15.428Z,102836.59
2023-05-19T06:20:42.071Z,102847.72
2023-05-19T06:23:08.556Z,102840.38
2023-05-19T06:25:39.849Z,102844.19
2023-05-19T06:28:08.639Z,102841.88
2023-05-19T06:30:36.687Z,102841.00
2023-05-19T06:33:08.234Z,102844.41
2023-05-19T06:35:34.870Z,102832.94
2023-05-19T06:38:01.562Z,102841.22
2023-05-19T06:40:30.545Z,102837.63
2023-05-19T06:43:02.087Z,102838.50
2023-05-19T06:45:31.167Z,102834.59
2023-05-19T06:47:58.421Z,102833.00
2023-05-19T06:50:28.449Z,102834.63
2023-05-19T06:52:58.330Z,102848.56
2023-05-19T06:55:27.261Z,102844.13
2023-05-19T06:57:53.833Z,102841.41
2023-05-19T07:00:23.976Z,102845.31
2023-05-19T07:02:53.955Z,102850.16
2023-05-19T07:05:22.913Z,102848.78
2023-05-19T07:07:49.448Z,102844.19
2023-05-19T07:10:16.587Z,102841.84
2023-05-19T07:12:43.618Z,102837.63
2023-05-19T07:15:10.539Z,102840.28
2023-05-19T07:17:44.326Z,102844.66
2023-05-19T07:20:13.515Z,102841.63
2023-05-19T07:22:40.273Z,102837.53
2023-05-19T07:25:09.828Z,102836.25
2023-05-19T07:27:38.695Z,102836.97
2023-05-19T07:30:05.729Z,102844.16
2023-05-19T07:32:32.337Z,102842.09
2023-05-19T07:34:59.214Z,102841.50
2023-05-19T07:37:26.400Z,102851.09
2023-05-19T07:39:53.151Z,102842.03
2023-05-19T07:42:19.728Z,102836.03
2023-05-19T07:44:46.429Z,102835.09
2023-05-19T07:47:17.475Z,102822.75
2023-05-19T07:49:44.043Z,102832.56
2023-05-19T07:52:15.323Z,102837.22
2023-05-19T07:54:41.905Z,102825.66
2023-05-19T07:57:08.486Z,102826.59
2023-05-19T07:59:37.287Z,102821.53
2023-05-19T08:02:03.927Z,102828.38
2023-05-19T08:04:30.653Z,102821.28
2023-05-19T08:06:59.746Z,102819.69
2023-05-19T08:09:28.795Z,102817.44
2023-05-19T08:12:01.564Z,102815.31
2023-05-19T08:14:28.150Z,102816.47
2023-05-19T08:16:54.649Z,102806.00
2023-05-19T08:19:23.877Z,102809.59
2023-05-19T08:21:55.223Z,102814.50
2023-05-19T08:24:24.062Z,102805.84
2023-05-19T08:26:52.689Z,102819.34
2023-05-19T08:29:19.311Z,102802.16
2023-05-19T08:31:46.097Z,102802.63
2023-05-19T08:34:15.434Z,102797.13
2023-05-19T08:36:45.273Z,102794.66
2023-05-19T08:39:13.516Z,102791.97
2023-05-19T08:41:42.290Z,102796.81
2023-05-19T08:44:10.041Z,102791.63
2023-05-19T08:46:43.621Z,102787.50
2023-05-19T08:49:25.379Z,102781.69
2023-05-19T08:52:17.160Z,102777.63
2023-05-19T08:54:51.124Z,102784.41
2023-05-19T08:57:23.010Z,102780.78
2023-05-19T08:59:55.409Z,102784.16
2023-05-19T09:02:25.289Z,102769.97
2023-05-19T09:04:52.766Z,102769.94
2023-05-19T09:07:25.486Z,102771.34
2023-05-19T09:09:52.023Z,102770.78
2023-05-19T09:12:21.587Z,102771.31
2023-05-19T09:14:50.536Z,102768.13
2023-05-19T09:17:19.424Z,102767.03
2023-05-19T09:19:49.333Z,102767.22
2023-05-19T09:22:21.336Z,102755.03
2023-05-19T09:24:48.427Z,102769.31
2023-05-19T09:27:23.851Z,102765.56
2023-05-19T09:29:50.969Z,102762.09
2023-05-19T09:32:27.833Z,102767.56
2023-05-19T09:34:55.108Z,102759.56
2023-05-19T09:37:27.685Z,102760.25
2023-05-19T09:39:57.208Z,102756.19
2023-05-19T09:42:30.224Z,102754.47
2023-05-19T09:45:02.970Z,102759.69
2023-05-19T09:47:38.603Z,102761.56
2023-05-19T09:50:08.939Z,102750.47
2023-05-19T09:52:37.197Z,102757.94
2023-05-19T09:55:12.715Z,102741.84
2023-05-19T09:57:43.199Z,102749.09
2023-05-19T10:00:18.489Z,102755.66
2023-05-19T10:02:47.923Z,102753.25
2023-05-19T10:05:17.656Z,102747.41
2023-05-19T10:07:45.692Z,102747.81
2023-05-19T10:10:14.004Z,102741.06
2023-05-19T10:12:41.966Z,102746.19
2023-05-19T10:15:15.930Z,102745.63
2023-05-19T10:17:46.213Z,102739.78
2023-05-19T10:20:17.112Z,102740.09
2023-05-19T10:22:46.429Z,102741.81
2023-05-19T10:25:15.209Z,102732.09
2023-05-19T10:28:05.510Z,102726.66
2023-05-19T10:30:34.631Z,102721.59
2023-05-19T10:33:03.595Z,102728.84
2023-05-19T10:35:54.418Z,102719.03
2023-05-19T10:38:58.583Z,102722.63
2023-05-19T10:41:46.982Z,102724.84
2023-05-19T10:44:35.037Z,102722.22
2023-05-19T10:47:01.676Z,102713.63
2023-05-19T10:49:35.561Z,102718.63
2023-05-19T10:52:04.344Z,102718.78
2023-05-19T10:54:46.584Z,102719.59
2023-05-19T10:57:20.568Z,102708.75
2023-05-19T10:59:57.745Z,102717.94
2023-05-19T11:02:37.825Z,102718.56
2023-05-19T11:05:16.571Z,102722.22
2023-05-19T11:07:45.025Z,102715.03
2023-05-19T11:10:11.913Z,102707.94
2023-05-19T11:12:43.352Z,102702.13
2023-05-19T11:15:14.934Z,102704.53
2023-05-19T11:17:49.001Z,102688.31
2023-05-19T11:20:27.130Z,102690.91
2023-05-19T11:23:11.332Z,102690.91
2023-05-19T11:25:45.767Z,102702.72
2023-05-19T11:28:15.674Z,102689.31
2023-05-19T11:30:46.441Z,102698.44
2023-05-19T11:33:13.855Z,102690.56
2023-05-19T11:35:40.607Z,102682.06
2023-05-19T11:38:07.340Z,102685.34
2023-05-19T11:40:36.647Z,102688.28
2023-05-19T11:43:03.283Z,102686.88
2023-05-19T11:45:33.304Z,102684.28
2023-05-19T11:48:03.141Z,102678.66
2023-05-19T11:50:35.294Z,102679.59
2023-05-19T11:53:04.136Z,102675.22
2023-05-19T11:55:31.089Z,102680.81
2023-05-19T11:58:05.595Z,102683.06
2023-05-19T12:00:43.010Z,102679.88
2023-05-19T12:03:10.563Z,102668.19
2023-05-19T12:05:47.415Z,102674.41
2023-05-19T12:08:14.796Z,102674.25
2023-05-19T12:10:41.415Z,102673.19
2023-05-19T12:13:11.004Z,102672.59
2023-05-19T12:15:40.073Z,102669.00
2023-05-19T12:18:12.193Z,102680.28
2023-05-19T12:20:39.226Z,102681.47
2023-05-19T12:23:08.832Z,102668.59
2023-05-19T12:25:35.624Z,102673.38
2023-05-19T12:28:05.442Z,102666.72
2023-05-19T12:30:33.637Z,102659.38
2023-05-19T12:33:04.299Z,102660.44
2023-05-19T12:35:33.850Z,102653.88
2023-05-19T12:38:07.046Z,102657.53
2023-05-19T12:40:40.622Z,102656.16
2023-05-19T12:43:09.880Z,102648.88
2023-05-19T12:45:39.653Z,102638.84
2023-05-19T12:48:15.953Z,102649.16
2023-05-19T12:50:46.758Z,102646.00
2023-05-19T12:53:14.461Z,102631.88
2023-05-19T12:55:47.306Z,102631.47
2023-05-19T12:58:15.764Z,102633.44
2023-05-19T13:00:43.825Z,102623.88
2023-05-19T13:03:22.751Z,102632.59
2023-05-19T13:05:50.855Z,102628.16
2023-05-19T13:08:21.404Z,102644.97
2023-05-19T13:10:56.078Z,102637.94
2023-05-19T13:13:25.176Z,102634.47
2023-05-19T13:15:51.710Z,102632.47
2023-05-19T13:18:20.662Z,102630.72
2023-05-19T13:20:49.284Z,102631.22
2023-05-19T13:23:16.193Z,102629.03
2023-05-19T13:25:45.826Z,102630.38
2023-05-19T13:28:12.796Z,102625.81
2023-05-19T13:30:41.040Z,102628.47
2023-05-19T13:33:07.939Z,102622.63
2023-05-19T13:35:37.582Z,102612.25
2023-05-19T13:38:07.921Z,102617.38
2023-05-19T13:40:35.114Z,102612.78
2023-05-19T13:43:02.807Z,102608.13
2023-05-19T13:45:29.434Z,102599.06
2023-05-19T13:47:56.455Z,102591.38
2023-05-19T13:50:28.069Z,102601.91
2023-05-19T13:52:54.650Z,102599.47
2023-05-19T13:55:21.526Z,102594.44
2023-05-19T13:57:48.044Z,102589.81
2023-05-19T14:00:15.109Z,102595.13
2023-05-19T14:02:42.495Z,102590.88
2023-05-19T14:05:09.199Z,102596.16
2023-05-19T14:07:38.396Z,102589.50
2023-05-19T14:10:07.807Z,102592.09
2023-05-19T14:13:04.798Z,102583.44
2023-05-19T14:15:34.548Z,102581.91
2023-05-19T14:18:01.364Z,102585.25
2023-05-19T14:20:29.249Z,102592.84
2023-05-19T14:23:00.794Z,102588.38
2023-05-19T14:25:32.171Z,102584.78
2023-05-19T14:27:58.702Z,102578.09
2023-05-19T14:30:25.284Z,102582.03
2023-05-19T14:32:54.321Z,102575.63
2023-05-19T14:35:24.077Z,102570.41
2023-05-19T14:37:51.247Z,102565.81
2023-05-19T14:40:17.818Z,102565.66
2023-05-19T14:42:44.396Z,102558.41
2023-05-19T14:45:11.475Z,102559.09
2023-05-19T14:47:38.061Z,102560.41
2023-05-19T14:50:05.019Z,102560.16
2023-05-19T14:52:31.510Z,102560.19
2023-05-19T14:55:02.943Z,102563.94
2023-05-19T14:57:34.447Z,102567.63
2023-05-19T15:00:01.013Z,102553.34
2023-05-19T15:02:29.549Z,102554.53
2023-05-19T15:04:58.940Z,102547.47
2023-05-19T15:07:27.803Z,102551.28
2023-05-19T15:09:56.683Z,102553.28
2023-05-19T15:12:25.408Z,102552.31
2023-05-19T15:14:56.501Z,102552.28
2023-05-19T15:17:25.541Z,102547.28
2023-05-19T15:19:56.690Z,102539.63
2023-05-19T15:22:23.482Z,102531.97
2023-05-19T15:24:52.536Z,102539.09
2023-05-19T15:27:19.204Z,102543.06
2023-05-19T15:29:45.725Z,102543.69
2023-05-19T15:32:12.342Z,102542.09
2023-05-19T15:34:41.386Z,102544.91
2023-05-19T15:37:07.913Z,102535.63
2023-05-19T15:39:39.362Z,102541.03
2023-05-19T15:42:06.097Z,102543.06
2023-05-19T15:44:36.554Z,102546.94
2023-05-19T15:47:06.142Z,102547.38
2023-05-19T15:49:32.696Z,102547.16
2023-05-19T15:52:04.171Z,102542.97
2023-05-19T15:54:33.026Z,102545.75
2023-05-19T15:56:59.533Z,102542.50
2023-05-19T15:59:26.095Z,102541.28
2023-05-19T16:01:53.242Z,102531.44
2023-05-19T16:04:22.353Z,102528.66
2023-05-19T16:06:51.459Z,102525.66
2023-05-19T16:09:22.812Z,102520.88
2023-05-19T16:11:51.872Z,102519.84
2023-05-19T16:14:18.460Z,102521.88
2023-05-19T16:16:45.012Z,102517.22
2023-05-19T16:19:14.120Z,102508.44
2023-05-19T16:21:40.700Z,102506.78
2023-05-19T16:24:12.149Z,102510.00
2023-05-19T16:26:38.669Z,102511.59
2023-05-19T16:29:05.276Z,102511.03
2023-05-19T16:31:31.859Z,102503.59
2023-05-19T16:33:58.523Z,102512.22
2023-05-19T16:36:25.061Z,102512.59
2023-05-19T16:38:51.614Z,102512.22
2023-05-19T16:41:18.107Z,102505.81
2023-05-19T16:43:44.628Z,102497.59
2023-05-19T16:46:13.780Z,102504.59
2023-05-19T16:48:43.519Z,102502.41
2023-05-19T16:51:10.023Z,102499.00
2023-05-19T16:53:36.676Z,102505.41
2023-05-19T16:56:06.237Z,102514.63
2023-05-19T16:58:32.773Z,102517.19
2023-05-19T17:01:04.074Z,102511.16
2023-05-19T17:03:31.928Z,102512.31
2023-05-19T17:05:58.632Z,102506.47
2023-05-19T17:08:27.547Z,102507.47
2023-05-19T17:10:56.554Z,102509.63
2023-05-19T17:13:23.450Z,102506.25
2023-05-19T17:15:53.331Z,102507.28
2023-05-19T17:18:19.838Z,102504.72
2023-05-19T17:20:46.329Z,102503.94
2023-05-19T17:23:12.862Z,102501.16
2023-05-19T17:25:41.852Z,102512.59
2023-05-19T17:28:10.752Z,102511.59
2023-05-19T17:30:42.296Z,102511.75
2023-05-19T17:33:11.532Z,102510.72
2023-05-19T17:35:41.400Z,102514.84
2023-05-19T17:38:07.966Z,102511.28
2023-05-19T17:40:35.743Z,102515.06
2023-05-19T17:43:05.976Z,102508.25
2023-05-19T17:45:32.502Z,102515.72
2023-05-19T17:48:01.490Z,102514.56
2023-05-19T17:50:30.179Z,102516.31
2023-05-19T17:52:57.012Z,102523.31
2023-05-19T17:55:29.816Z,102521.88
2023-05-19T17:57:59.457Z,102513.41
2023-05-19T18:00:28.613Z,102522.56
2023-05-19T18:02:59.052Z,102517.16
2023-05-19T18:05:26.615Z,102525.09
2023-05-19T18:07:56.426Z,102516.81
2023-05-19T18:10:25.742Z,102525.25
2023-05-19T18:12:52.232Z,102521.38
2023-05-19T18:15:21.067Z,102516.72
2023-05-19T18:17:48.213Z,102524.31
2023-05-19T18:20:17.347Z,102524.84
2023-05-19T18:22:46.942Z,102526.94
2023-05-19T18:25:17.050Z,102522.50
2023-05-19T18:27:43.848Z,102527.78
2023-05-19T18:30:10.839Z,102526.50
2023-05-19T18:32:39.894Z,102531.03
2023-05-19T18:35:09.290Z,102528.19
2023-05-19T18:37:38.533Z,102539.25
2023-05-19T18:40:05.810Z,102547.78
2023-05-19T18:42:32.283Z,102538.75
2023-05-19T18:44:58.802Z,102539.47
2023-05-19T18:47:25.347Z,102548.00
2023-05-19T18:49:51.850Z,102540.16
2023-05-19T18:52:19.815Z,102541.63
2023-05-19T18:54:47.145Z,102553.47
2023-05-19T18:57:16.270Z,102554.16
2023-05-19T18:59:47.605Z,102552.00
2023-05-19T19:02:14.086Z,102554.50
2023-05-19T19:04:42.894Z,102549.22
2023-05-19T19:07:12.252Z,102544.13
2023-05-19T19:09:39.541Z,102560.25
2023-05-19T19:12:08.283Z,102558.19
2023-05-19T19:14:39.343Z,102563.44
2023-05-19T19:17:13.419Z,102566.72
2023-05-19T19:19:40.206Z,102562.88
2023-05-19T19:22:09.047Z,102565.75
2023-05-19T19:24:35.841Z,102562.22
2023-05-19T19:27:02.438Z,102563.91
2023-05-19T19:29:31.992Z,102568.19
2023-05-19T19:32:00.898Z,102575.03
2023-05-19T19:34:27.459Z,102579.09
2023-05-19T19:36:54.044Z,102583.53
2023-05-19T19:39:23.867Z,102578.56
2023-05-19T19:41:50.432Z,102581.19
2023-05-19T19:44:19.259Z,102583.03
2023-05-19T19:46:45.852Z,102590.84
2023-05-19T19:49:12.371Z,102590.72
2023-05-19T19:51:38.866Z,102597.38
2023-05-19T19:54:10.344Z,102598.38
2023-05-19T19:56:39.069Z,102598.72
2023-05-19T19:59:08.028Z,102598.59
2023-05-19T20:01:36.982Z,102603.47
2023-05-19T20:04:08.240Z,102604.78
2023-05-19T20:06:38.367Z,102602.19
2023-05-19T20:09:05.253Z,102613.06
2023-05-19T20:11:31.881Z,102606.59
2023-05-19T20:14:03.168Z,102610.66
2023-05-19T20:16:29.757Z,102611.16
2023-05-19T20:18:56.475Z,102605.66
2023-05-19T20:21:22.992Z,102601.94
2023-05-19T20:23:51.714Z,102618.91
2023-05-19T20:26:18.311Z,102622.47
2023-05-19T20:28:46.406Z,102619.72
2023-05-19T20:31:15.460Z,102629.75
2023-05-19T20:33:42.055Z,102620.34
2023-05-19T20:36:08.579Z,102624.91
2023-05-19T20:38:35.072Z,102622.31
2023-05-19T20:41:01.993Z,102623.94
2023-05-19T20:43:31.826Z,102626.66
2023-05-19T20:45:58.782Z,102635.03
2023-05-19T20:48:25.773Z,102637.16
2023-05-19T20:50:53.533Z,102629.88
2023-05-19T20:53:21.480Z,102637.81
2023-05-19T20:55:52.853Z,102644.88
2023-05-19T20:58:19.343Z,102638.56
2023-05-19T21:00:45.900Z,102641.63
2023-05-19T21:03:14.927Z,102646.16
2023-05-19T21:05:44.064Z,102639.84
2023-05-19T21:08:13.651Z,102640.63
2023-05-19T21:10:42.705Z,102640.94
2023-05-19T21:13:12.150Z,102643.84
2023-05-19T21:15:38.673Z,102634.47
2023-05-19T21:18:08.419Z,102641.25
2023-05-19T21:20:39.871Z,102650.09
2023-05-19T21:23:06.380Z,102647.84
2023-05-19T21:25:35.703Z,102650.72
2023-05-19T21:28:02.212Z,102656.22
2023-05-19T21:30:28.762Z,102652.31
2023-05-19T21:32:57.974Z,102659.56
2023-05-19T21:35:27.235Z,102662.56
2023-05-19T21:37:56.538Z,102656.91
2023-05-19T21:40:27.687Z,102665.31
2023-05-19T21:42:54.232Z,102663.44
2023-05-19T21:45:20.810Z,102656.59
2023-05-19T21:47:47.401Z,102659.88
2023-05-19T21:50:17.294Z,102668.84
2023-05-19T21:52:46.045Z,102669.66
2023-05-19T21:55:14.903Z,102666.28
2023-05-19T21:57:43.683Z,102667.84
2023-05-19T22:00:13.412Z,102673.47
2023-05-19T22:02:40.533Z,102666.03
2023-05-19T22:05:09.575Z,102669.56
2023-05-19T22:07:38.221Z,102668.41
2023-05-19T22:10:05.271Z,102664.88
2023-05-19T22:12:32.642Z,102665.53
2023-05-19T22:15:02.823Z,102661.47
2023-05-19T22:17:31.909Z,102668.56
2023-05-19T22:19:58.436Z,102668.72
2023-05-19T22:22:27.291Z,102664.31
2023-05-19T22:24:53.828Z,102666.03
2023-05-19T22:27:22.708Z,102666.03
2023-05-19T22:29:49.235Z,102657.84
2023-05-19T22:32:19.531Z,102669.75
2023-05-19T22:34:46.651Z,102664.59
2023-05-19T22:37:13.319Z,102666.53
2023-05-19T22:39:42.063Z,102671.84
2023-05-19T22:42:11.074Z,102673.91
2023-05-19T22:44:42.210Z,102665.34
2023-05-19T22:47:13.955Z,102662.69
2023-05-19T22:49:41.411Z,102666.81
2023-05-19T22:52:11.369Z,102667.44
2023-05-19T22:54:38.234Z,102672.88
2023-05-19T22:57:05.164Z,102674.78
2023-05-19T22:59:35.377Z,102671.97
2023-05-19T23:02:02.041Z,102674.34
2023-05-19T23:04:32.125Z,102676.72
2023-05-19T23:07:01.205Z,102674.88
2023-05-19T23:09:30.576Z,102672.06
2023-05-19T23:11:57.113Z,102674.13
2023-05-19T23:14:25.813Z,102671.03
2023-05-19T23:16:52.422Z,102671.34
2023-05-19T23:19:20.520Z,102669.19
2023-05-19T23:21:48.981Z,102668.00
2023-05-19T23:24:17.929Z,102661.91
2023-05-19T23:26:46.687Z,102668.69
2023-05-19T23:29:14.753Z,102669.09
2023-05-19T23:31:41.649Z,102663.88
2023-05-19T23:34:11.253Z,102662.38
2023-05-19T23:36:37.856Z,102664.97
2023-05-19T23:39:04.348Z,102663.34
2023-05-19T23:41:33.215Z,102666.22
2023-05-19T23:44:02.014Z,102663.13
2023-05-19T23:46:31.407Z,102665.03
2023-05-19T23:48:59.303Z,102657.75
2023-05-19T23:51:28.081Z,102668.31
2023-05-19T23:53:54.616Z,102656.81
2023-05-19T23:56:21.726Z,102667.69
2023-05-19T23:58:48.221Z,102656.56
